sensor_id;sensor_type;location;lat;lon;timestamp;temperature;humidity
35668;DHT22;22158;59.280;17.806;2023-08-07T00:01:30;19.20;99.90
35668;DHT22;22158;59.280;17.806;2023-08-07T00:03:56;19.30;99.90
35668;DHT22;22158;59.280;17.806;2023-08-07T00:06:21;19.40;99.90
35668;DHT22;22158;59.280;17.806;2023-08-07T00:08:47;19.40;99.90
35668;DHT22;22158;59.280;17.806;2023-08-07T00:11:12;19.50;99.90
35668;DHT22;22158;59.280;17.806;2023-08-07T00:13:38;19.50;99.90
35668;DHT22;22158;59.280;17.806;2023-08-07T00:16:04;19.50;99.90
35668;DHT22;22158;59.280;17.806;2023-08-07T00:18:29;19.60;99.90
35668;DHT22;22158;59.280;17.806;2023-08-07T00:20:55;19.60;99.90
35668;DHT22;22158;59.280;17.806;2023-08-07T00:23:21;19.60;99.90
35668;DHT22;22158;59.280;17.806;2023-08-07T00:25:46;19.60;99.90
35668;DHT22;22158;59.280;17.806;2023-08-07T00:28:12;19.60;99.90
35668;DHT22;22158;59.280;17.806;2023-08-07T00:30:38;19.60;99.90
35668;DHT22;22158;59.280;17.806;2023-08-07T00:33:03;19.60;99.90
35668;DHT22;22158;59.280;17.806;2023-08-07T00:35:29;19.60;99.90
35668;DHT22;22158;59.280;17.806;2023-08-07T00:37:54;19.50;99.90
35668;DHT22;22158;59.280;17.806;2023-08-07T00:40:20;19.60;99.90
35668;DHT22;22158;59.280;17.806;2023-08-07T00:42:45;19.60;99.90
35668;DHT22;22158;59.280;17.806;2023-08-07T00:45:11;19.50;99.90
35668;DHT22;22158;59.280;17.806;2023-08-07T00:47:37;19.50;99.90
35668;DHT22;22158;59.280;17.806;2023-08-07T00:50:04;19.50;99.90
35668;DHT22;22158;59.280;17.806;2023-08-07T00:52:30;19.50;99.90
35668;DHT22;22158;59.280;17.806;2023-08-07T00:54:57;19.50;99.90
35668;DHT22;22158;59.280;17.806;2023-08-07T00:57:22;19.50;99.90
35668;DHT22;22158;59.280;17.806;2023-08-07T00:59:50;19.40;99.90
35668;DHT22;22158;59.280;17.806;2023-08-07T01:02:15;19.40;99.90
35668;DHT22;22158;59.280;17.806;2023-08-07T01:04:41;19.40;99.90
35668;DHT22;22158;59.280;17.806;2023-08-07T01:07:06;19.40;99.90
35668;DHT22;22158;59.280;17.806;2023-08-07T01:09:32;19.40;99.90
35668;DHT22;22158;59.280;17.806;2023-08-07T01:12:18;19.40;99.90
35668;DHT22;22158;59.280;17.806;2023-08-07T01:14:49;19.40;99.90
35668;DHT22;22158;59.280;17.806;2023-08-07T01:17:18;19.40;99.90
35668;DHT22;22158;59.280;17.806;2023-08-07T01:19:45;19.40;99.90
35668;DHT22;22158;59.280;17.806;2023-08-07T01:22:15;19.40;99.90
35668;DHT22;22158;59.280;17.806;2023-08-07T01:24:46;19.40;99.90
35668;DHT22;22158;59.280;17.806;2023-08-07T01:32:11;19.30;99.90
35668;DHT22;22158;59.280;17.806;2023-08-07T01:34:41;19.40;99.90
35668;DHT22;22158;59.280;17.806;2023-08-07T01:37:07;19.40;99.90
35668;DHT22;22158;59.280;17.806;2023-08-07T01:39:36;19.40;99.90
35668;DHT22;22158;59.280;17.806;2023-08-07T01:42:04;19.40;99.90
35668;DHT22;22158;59.280;17.806;2023-08-07T01:44:30;19.40;99.90
35668;DHT22;22158;59.280;17.806;2023-08-07T01:46:56;19.40;99.90
35668;DHT22;22158;59.280;17.806;2023-08-07T01:49:22;19.40;99.90
35668;DHT22;22158;59.280;17.806;2023-08-07T01:51:47;19.40;99.90
35668;DHT22;22158;59.280;17.806;2023-08-07T01:54:13;19.40;99.90
35668;DHT22;22158;59.280;17.806;2023-08-07T01:56:38;19.30;99.90
35668;DHT22;22158;59.280;17.806;2023-08-07T01:59:04;19.30;99.90
35668;DHT22;22158;59.280;17.806;2023-08-07T02:01:29;19.30;99.90
35668;DHT22;22158;59.280;17.806;2023-08-07T02:03:55;19.30;99.90
35668;DHT22;22158;59.280;17.806;2023-08-07T02:06:20;19.30;99.90
35668;DHT22;22158;59.280;17.806;2023-08-07T02:08:46;19.30;99.90
35668;DHT22;22158;59.280;17.806;2023-08-07T02:11:11;19.30;99.90
35668;DHT22;22158;59.280;17.806;2023-08-07T02:13:37;19.30;99.90
35668;DHT22;22158;59.280;17.806;2023-08-07T02:16:03;19.30;99.90
35668;DHT22;22158;59.280;17.806;2023-08-07T02:18:28;19.30;99.90
35668;DHT22;22158;59.280;17.806;2023-08-07T02:20:54;19.30;99.90
35668;DHT22;22158;59.280;17.806;2023-08-07T02:23:19;19.20;99.90
35668;DHT22;22158;59.280;17.806;2023-08-07T02:25:45;19.20;99.90
35668;DHT22;22158;59.280;17.806;2023-08-07T02:28:11;19.20;99.90
35668;DHT22;22158;59.280;17.806;2023-08-07T02:30:36;19.20;99.90
35668;DHT22;22158;59.280;17.806;2023-08-07T02:33:02;19.20;99.90
35668;DHT22;22158;59.280;17.806;2023-08-07T02:35:27;19.20;99.90
35668;DHT22;22158;59.280;17.806;2023-08-07T02:37:53;19.20;99.90
35668;DHT22;22158;59.280;17.806;2023-08-07T02:40:19;19.20;99.90
35668;DHT22;22158;59.280;17.806;2023-08-07T02:42:44;19.20;99.90
35668;DHT22;22158;59.280;17.806;2023-08-07T02:45:10;19.20;99.90
35668;DHT22;22158;59.280;17.806;2023-08-07T02:47:36;19.20;99.90
35668;DHT22;22158;59.280;17.806;2023-08-07T02:50:01;19.20;99.90
35668;DHT22;22158;59.280;17.806;2023-08-07T02:52:27;19.20;99.90
35668;DHT22;22158;59.280;17.806;2023-08-07T02:54:53;19.20;99.90
35668;DHT22;22158;59.280;17.806;2023-08-07T02:57:19;19.20;99.90
35668;DHT22;22158;59.280;17.806;2023-08-07T02:59:44;19.20;99.90
35668;DHT22;22158;59.280;17.806;2023-08-07T03:02:10;19.30;99.90
35668;DHT22;22158;59.280;17.806;2023-08-07T03:04:35;19.30;99.90
35668;DHT22;22158;59.280;17.806;2023-08-07T03:07:01;19.20;99.90
35668;DHT22;22158;59.280;17.806;2023-08-07T03:09:27;19.30;99.90
35668;DHT22;22158;59.280;17.806;2023-08-07T03:11:52;19.20;99.90
35668;DHT22;22158;59.280;17.806;2023-08-07T03:14:18;19.20;99.90
35668;DHT22;22158;59.280;17.806;2023-08-07T03:16:45;19.20;99.90
35668;DHT22;22158;59.280;17.806;2023-08-07T03:19:10;19.20;99.90
35668;DHT22;22158;59.280;17.806;2023-08-07T03:21:36;19.20;99.90
35668;DHT22;22158;59.280;17.806;2023-08-07T03:24:01;19.20;99.90
35668;DHT22;22158;59.280;17.806;2023-08-07T03:26:27;19.20;99.90
35668;DHT22;22158;59.280;17.806;2023-08-07T03:28:52;19.20;99.90
35668;DHT22;22158;59.280;17.806;2023-08-07T03:31:18;19.20;99.90
35668;DHT22;22158;59.280;17.806;2023-08-07T03:33:44;19.20;99.90
35668;DHT22;22158;59.280;17.806;2023-08-07T03:36:09;19.20;99.90
35668;DHT22;22158;59.280;17.806;2023-08-07T03:38:35;19.20;99.90
35668;DHT22;22158;59.280;17.806;2023-08-07T03:41:00;19.20;99.90
35668;DHT22;22158;59.280;17.806;2023-08-07T03:43:26;19.20;99.90
35668;DHT22;22158;59.280;17.806;2023-08-07T03:45:55;19.20;99.90
35668;DHT22;22158;59.280;17.806;2023-08-07T03:48:22;19.20;99.90
35668;DHT22;22158;59.280;17.806;2023-08-07T03:50:47;19.20;99.90
35668;DHT22;22158;59.280;17.806;2023-08-07T03:53:13;19.20;99.90
35668;DHT22;22158;59.280;17.806;2023-08-07T03:55:38;19.20;99.90
35668;DHT22;22158;59.280;17.806;2023-08-07T03:58:04;19.20;99.90
35668;DHT22;22158;59.280;17.806;2023-08-07T04:00:30;19.20;99.90
35668;DHT22;22158;59.280;17.806;2023-08-07T04:02:56;19.30;99.90
35668;DHT22;22158;59.280;17.806;2023-08-07T04:05:21;19.30;99.90
35668;DHT22;22158;59.280;17.806;2023-08-07T04:07:47;19.30;99.90
35668;DHT22;22158;59.280;17.806;2023-08-07T04:10:13;19.30;99.90
35668;DHT22;22158;59.280;17.806;2023-08-07T04:12:38;19.30;99.90
35668;DHT22;22158;59.280;17.806;2023-08-07T04:15:04;19.40;99.90
35668;DHT22;22158;59.280;17.806;2023-08-07T04:17:30;19.40;99.90
35668;DHT22;22158;59.280;17.806;2023-08-07T04:19:56;19.40;99.90
35668;DHT22;22158;59.280;17.806;2023-08-07T04:22:21;19.40;99.90
35668;DHT22;22158;59.280;17.806;2023-08-07T04:24:47;19.50;99.90
35668;DHT22;22158;59.280;17.806;2023-08-07T04:27:12;19.50;99.90
35668;DHT22;22158;59.280;17.806;2023-08-07T04:29:38;19.50;99.90
35668;DHT22;22158;59.280;17.806;2023-08-07T04:32:04;19.50;99.90
35668;DHT22;22158;59.280;17.806;2023-08-07T04:34:29;19.50;99.90
35668;DHT22;22158;59.280;17.806;2023-08-07T04:36:55;19.60;99.90
35668;DHT22;22158;59.280;17.806;2023-08-07T04:39:21;19.60;99.90
35668;DHT22;22158;59.280;17.806;2023-08-07T04:41:47;19.60;99.90
35668;DHT22;22158;59.280;17.806;2023-08-07T04:44:15;19.60;99.90
35668;DHT22;22158;59.280;17.806;2023-08-07T04:46:41;19.60;99.90
35668;DHT22;22158;59.280;17.806;2023-08-07T04:49:06;19.60;99.90
35668;DHT22;22158;59.280;17.806;2023-08-07T04:51:32;19.70;99.90
35668;DHT22;22158;59.280;17.806;2023-08-07T04:53:58;19.70;99.90
35668;DHT22;22158;59.280;17.806;2023-08-07T04:56:23;19.70;99.90
35668;DHT22;22158;59.280;17.806;2023-08-07T04:58:49;19.70;99.90
35668;DHT22;22158;59.280;17.806;2023-08-07T05:01:15;19.70;99.90
35668;DHT22;22158;59.280;17.806;2023-08-07T05:03:40;19.70;99.90
35668;DHT22;22158;59.280;17.806;2023-08-07T05:06:06;19.60;99.90
35668;DHT22;22158;59.280;17.806;2023-08-07T05:08:32;19.60;99.90
35668;DHT22;22158;59.280;17.806;2023-08-07T05:10:57;19.60;99.90
35668;DHT22;22158;59.280;17.806;2023-08-07T05:13:23;19.50;99.90
35668;DHT22;22158;59.280;17.806;2023-08-07T05:15:48;19.50;99.90
35668;DHT22;22158;59.280;17.806;2023-08-07T05:18:14;19.50;99.90
35668;DHT22;22158;59.280;17.806;2023-08-07T05:20:40;19.50;99.90
35668;DHT22;22158;59.280;17.806;2023-08-07T05:23:06;19.50;99.90
35668;DHT22;22158;59.280;17.806;2023-08-07T05:25:31;19.50;99.90
35668;DHT22;22158;59.280;17.806;2023-08-07T05:27:57;19.40;99.90
35668;DHT22;22158;59.280;17.806;2023-08-07T05:30:23;19.40;99.90
35668;DHT22;22158;59.280;17.806;2023-08-07T05:32:49;19.50;99.90
35668;DHT22;22158;59.280;17.806;2023-08-07T05:35:14;19.50;99.90
35668;DHT22;22158;59.280;17.806;2023-08-07T05:37:40;19.60;99.90
35668;DHT22;22158;59.280;17.806;2023-08-07T05:40:06;19.60;99.90
35668;DHT22;22158;59.280;17.806;2023-08-07T05:42:32;19.70;99.90
35668;DHT22;22158;59.280;17.806;2023-08-07T05:44:58;19.70;99.90
35668;DHT22;22158;59.280;17.806;2023-08-07T05:47:24;19.80;99.90
35668;DHT22;22158;59.280;17.806;2023-08-07T05:49:49;19.80;99.90
35668;DHT22;22158;59.280;17.806;2023-08-07T05:52:17;19.80;99.90
35668;DHT22;22158;59.280;17.806;2023-08-07T05:54:43;19.90;99.90
35668;DHT22;22158;59.280;17.806;2023-08-07T05:57:09;19.80;99.90
35668;DHT22;22158;59.280;17.806;2023-08-07T05:59:35;19.80;99.90
35668;DHT22;22158;59.280;17.806;2023-08-07T06:02:02;19.80;99.90
35668;DHT22;22158;59.280;17.806;2023-08-07T06:04:27;19.80;99.90
35668;DHT22;22158;59.280;17.806;2023-08-07T06:06:53;19.80;99.90
35668;DHT22;22158;59.280;17.806;2023-08-07T06:09:19;19.70;99.90
35668;DHT22;22158;59.280;17.806;2023-08-07T06:11:47;19.80;99.90
35668;DHT22;22158;59.280;17.806;2023-08-07T06:14:12;19.90;99.90
35668;DHT22;22158;59.280;17.806;2023-08-07T06:16:38;20.00;99.90
35668;DHT22;22158;59.280;17.806;2023-08-07T06:19:03;20.10;99.90
35668;DHT22;22158;59.280;17.806;2023-08-07T06:21:29;20.10;99.90
35668;DHT22;22158;59.280;17.806;2023-08-07T06:23:55;20.20;99.90
35668;DHT22;22158;59.280;17.806;2023-08-07T06:26:20;20.20;99.90
35668;DHT22;22158;59.280;17.806;2023-08-07T06:28:46;20.30;99.90
35668;DHT22;22158;59.280;17.806;2023-08-07T06:31:12;20.30;99.90
35668;DHT22;22158;59.280;17.806;2023-08-07T06:33:38;20.40;99.90
35668;DHT22;22158;59.280;17.806;2023-08-07T06:36:04;20.50;99.90
35668;DHT22;22158;59.280;17.806;2023-08-07T06:38:30;20.70;99.90
35668;DHT22;22158;59.280;17.806;2023-08-07T06:40:56;20.80;99.90
35668;DHT22;22158;59.280;17.806;2023-08-07T06:43:22;20.90;99.90
35668;DHT22;22158;59.280;17.806;2023-08-07T06:45:49;21.00;99.90
35668;DHT22;22158;59.280;17.806;2023-08-07T06:48:15;21.10;99.90
35668;DHT22;22158;59.280;17.806;2023-08-07T06:50:41;21.10;99.90
35668;DHT22;22158;59.280;17.806;2023-08-07T06:53:06;21.10;99.90
35668;DHT22;22158;59.280;17.806;2023-08-07T06:55:32;21.10;99.90
35668;DHT22;22158;59.280;17.806;2023-08-07T06:57:59;21.10;99.90
35668;DHT22;22158;59.280;17.806;2023-08-07T07:00:24;21.10;99.90
35668;DHT22;22158;59.280;17.806;2023-08-07T07:02:50;21.20;99.90
35668;DHT22;22158;59.280;17.806;2023-08-07T07:05:16;21.20;99.90
35668;DHT22;22158;59.280;17.806;2023-08-07T07:07:41;21.20;99.90
35668;DHT22;22158;59.280;17.806;2023-08-07T07:10:07;21.20;99.90
35668;DHT22;22158;59.280;17.806;2023-08-07T07:12:33;21.30;99.90
35668;DHT22;22158;59.280;17.806;2023-08-07T07:14:58;21.40;99.90
35668;DHT22;22158;59.280;17.806;2023-08-07T07:17:24;21.40;99.90
35668;DHT22;22158;59.280;17.806;2023-08-07T07:19:49;21.50;99.90
35668;DHT22;22158;59.280;17.806;2023-08-07T07:22:15;21.70;99.90
35668;DHT22;22158;59.280;17.806;2023-08-07T07:24:40;21.90;99.90
35668;DHT22;22158;59.280;17.806;2023-08-07T07:27:06;22.00;99.90
35668;DHT22;22158;59.280;17.806;2023-08-07T07:29:32;22.00;99.90
35668;DHT22;22158;59.280;17.806;2023-08-07T07:31:57;22.00;99.90
35668;DHT22;22158;59.280;17.806;2023-08-07T07:34:23;22.00;99.90
35668;DHT22;22158;59.280;17.806;2023-08-07T07:36:49;21.90;99.90
35668;DHT22;22158;59.280;17.806;2023-08-07T07:39:14;21.90;99.90
35668;DHT22;22158;59.280;17.806;2023-08-07T07:41:40;21.80;99.90
35668;DHT22;22158;59.280;17.806;2023-08-07T07:44:05;21.80;99.90
35668;DHT22;22158;59.280;17.806;2023-08-07T07:46:31;21.80;99.90
35668;DHT22;22158;59.280;17.806;2023-08-07T07:48:58;21.80;99.90
35668;DHT22;22158;59.280;17.806;2023-08-07T07:51:24;21.90;99.90
35668;DHT22;22158;59.280;17.806;2023-08-07T07:53:49;21.90;99.90
35668;DHT22;22158;59.280;17.806;2023-08-07T07:56:15;21.90;99.90
35668;DHT22;22158;59.280;17.806;2023-08-07T07:58:40;21.90;99.90
35668;DHT22;22158;59.280;17.806;2023-08-07T08:01:07;22.00;99.90
35668;DHT22;22158;59.280;17.806;2023-08-07T08:03:33;22.20;99.90
35668;DHT22;22158;59.280;17.806;2023-08-07T08:05:59;22.30;99.90
35668;DHT22;22158;59.280;17.806;2023-08-07T08:08:26;22.40;99.90
35668;DHT22;22158;59.280;17.806;2023-08-07T08:10:52;22.60;99.90
35668;DHT22;22158;59.280;17.806;2023-08-07T08:13:18;22.70;99.90
35668;DHT22;22158;59.280;17.806;2023-08-07T08:15:44;22.70;99.90
35668;DHT22;22158;59.280;17.806;2023-08-07T08:18:10;22.70;99.90
35668;DHT22;22158;59.280;17.806;2023-08-07T08:20:36;22.70;99.90
35668;DHT22;22158;59.280;17.806;2023-08-07T08:23:02;22.70;99.90
35668;DHT22;22158;59.280;17.806;2023-08-07T08:25:28;22.80;99.90
35668;DHT22;22158;59.280;17.806;2023-08-07T08:27:53;22.90;99.90
35668;DHT22;22158;59.280;17.806;2023-08-07T08:30:19;23.10;99.90
35668;DHT22;22158;59.280;17.806;2023-08-07T08:32:45;23.20;99.90
35668;DHT22;22158;59.280;17.806;2023-08-07T08:35:11;23.30;99.90
35668;DHT22;22158;59.280;17.806;2023-08-07T08:37:37;23.40;99.90
35668;DHT22;22158;59.280;17.806;2023-08-07T08:40:02;23.50;99.90
35668;DHT22;22158;59.280;17.806;2023-08-07T08:42:28;23.50;99.90
35668;DHT22;22158;59.280;17.806;2023-08-07T08:44:58;23.50;99.90
35668;DHT22;22158;59.280;17.806;2023-08-07T08:47:26;23.50;99.90
35668;DHT22;22158;59.280;17.806;2023-08-07T08:52:32;23.50;99.90
35668;DHT22;22158;59.280;17.806;2023-08-07T08:54:58;23.50;99.90
35668;DHT22;22158;59.280;17.806;2023-08-07T08:57:27;23.60;99.90
35668;DHT22;22158;59.280;17.806;2023-08-07T08:59:53;23.60;99.90
35668;DHT22;22158;59.280;17.806;2023-08-07T09:02:19;23.80;99.90
35668;DHT22;22158;59.280;17.806;2023-08-07T09:04:45;23.80;99.90
35668;DHT22;22158;59.280;17.806;2023-08-07T09:07:13;23.90;99.90
35668;DHT22;22158;59.280;17.806;2023-08-07T09:09:40;23.90;99.90
35668;DHT22;22158;59.280;17.806;2023-08-07T09:12:08;24.00;99.90
35668;DHT22;22158;59.280;17.806;2023-08-07T09:14:40;24.10;99.90
35668;DHT22;22158;59.280;17.806;2023-08-07T09:17:06;24.20;99.90
35668;DHT22;22158;59.280;17.806;2023-08-07T09:19:33;24.20;99.90
35668;DHT22;22158;59.280;17.806;2023-08-07T09:21:58;24.30;99.90
35668;DHT22;22158;59.280;17.806;2023-08-07T09:24:24;24.30;99.90
35668;DHT22;22158;59.280;17.806;2023-08-07T09:26:51;24.20;99.90
35668;DHT22;22158;59.280;17.806;2023-08-07T09:29:18;24.20;99.90
35668;DHT22;22158;59.280;17.806;2023-08-07T09:31:44;24.20;99.90
35668;DHT22;22158;59.280;17.806;2023-08-07T09:34:13;24.10;99.90
35668;DHT22;22158;59.280;17.806;2023-08-07T09:36:41;24.10;99.90
35668;DHT22;22158;59.280;17.806;2023-08-07T09:39:07;24.00;99.90
35668;DHT22;22158;59.280;17.806;2023-08-07T09:41:33;24.00;99.90
35668;DHT22;22158;59.280;17.806;2023-08-07T09:44:08;24.00;99.90
35668;DHT22;22158;59.280;17.806;2023-08-07T09:46:41;24.00;99.90
35668;DHT22;22158;59.280;17.806;2023-08-07T09:49:08;23.90;99.90
35668;DHT22;22158;59.280;17.806;2023-08-07T09:51:41;23.80;99.90
35668;DHT22;22158;59.280;17.806;2023-08-07T09:54:07;23.80;99.90
35668;DHT22;22158;59.280;17.806;2023-08-07T09:56:35;23.80;99.90
35668;DHT22;22158;59.280;17.806;2023-08-07T09:59:01;23.90;99.90
35668;DHT22;22158;59.280;17.806;2023-08-07T10:01:26;24.10;99.90
35668;DHT22;22158;59.280;17.806;2023-08-07T10:03:52;24.20;99.90
35668;DHT22;22158;59.280;17.806;2023-08-07T10:06:18;24.20;99.90
35668;DHT22;22158;59.280;17.806;2023-08-07T10:08:45;24.20;99.90
35668;DHT22;22158;59.280;17.806;2023-08-07T10:11:11;24.10;99.90
35668;DHT22;22158;59.280;17.806;2023-08-07T10:13:40;24.20;99.90
35668;DHT22;22158;59.280;17.806;2023-08-07T10:16:06;24.20;99.90
35668;DHT22;22158;59.280;17.806;2023-08-07T10:18:36;24.30;99.90
35668;DHT22;22158;59.280;17.806;2023-08-07T10:21:03;24.40;99.90
35668;DHT22;22158;59.280;17.806;2023-08-07T10:23:33;24.40;99.90
35668;DHT22;22158;59.280;17.806;2023-08-07T10:26:00;24.40;99.90
35668;DHT22;22158;59.280;17.806;2023-08-07T10:28:27;24.40;99.90
35668;DHT22;22158;59.280;17.806;2023-08-07T10:30:54;24.50;99.90
35668;DHT22;22158;59.280;17.806;2023-08-07T10:33:20;24.70;99.90
35668;DHT22;22158;59.280;17.806;2023-08-07T10:35:47;24.70;99.90
35668;DHT22;22158;59.280;17.806;2023-08-07T10:38:19;24.80;99.90
35668;DHT22;22158;59.280;17.806;2023-08-07T10:43:29;25.00;99.90
35668;DHT22;22158;59.280;17.806;2023-08-07T10:46:11;25.00;99.90
35668;DHT22;22158;59.280;17.806;2023-08-07T10:48:47;25.10;99.90
35668;DHT22;22158;59.280;17.806;2023-08-07T10:51:17;25.10;99.90
35668;DHT22;22158;59.280;17.806;2023-08-07T10:53:48;25.10;99.90
35668;DHT22;22158;59.280;17.806;2023-08-07T10:56:18;25.10;99.90
35668;DHT22;22158;59.280;17.806;2023-08-07T10:58:54;25.00;99.90
35668;DHT22;22158;59.280;17.806;2023-08-07T11:01:41;25.00;99.90
35668;DHT22;22158;59.280;17.806;2023-08-07T11:04:11;24.90;99.90
35668;DHT22;22158;59.280;17.806;2023-08-07T11:06:38;24.90;99.90
35668;DHT22;22158;59.280;17.806;2023-08-07T11:09:06;24.80;99.90
35668;DHT22;22158;59.280;17.806;2023-08-07T11:11:41;24.70;99.90
35668;DHT22;22158;59.280;17.806;2023-08-07T11:14:14;24.60;99.90
35668;DHT22;22158;59.280;17.806;2023-08-07T11:16:40;24.50;99.90
35668;DHT22;22158;59.280;17.806;2023-08-07T11:19:06;24.40;99.90
35668;DHT22;22158;59.280;17.806;2023-08-07T11:21:34;24.30;99.90
35668;DHT22;22158;59.280;17.806;2023-08-07T11:24:00;24.40;99.90
35668;DHT22;22158;59.280;17.806;2023-08-07T11:26:26;24.50;99.90
35668;DHT22;22158;59.280;17.806;2023-08-07T11:28:54;24.70;99.90
35668;DHT22;22158;59.280;17.806;2023-08-07T11:31:19;24.90;99.90
35668;DHT22;22158;59.280;17.806;2023-08-07T11:33:45;25.30;99.90
35668;DHT22;22158;59.280;17.806;2023-08-07T11:36:12;25.50;99.90
35668;DHT22;22158;59.280;17.806;2023-08-07T11:41:06;26.00;99.90
35668;DHT22;22158;59.280;17.806;2023-08-07T11:43:33;26.20;99.90
35668;DHT22;22158;59.280;17.806;2023-08-07T11:46:02;26.40;99.90
35668;DHT22;22158;59.280;17.806;2023-08-07T11:48:30;26.60;99.90
35668;DHT22;22158;59.280;17.806;2023-08-07T11:50:56;26.80;99.90
35668;DHT22;22158;59.280;17.806;2023-08-07T11:53:24;26.60;99.90
35668;DHT22;22158;59.280;17.806;2023-08-07T11:55:57;26.50;99.90
35668;DHT22;22158;59.280;17.806;2023-08-07T11:58:46;26.50;99.90
35668;DHT22;22158;59.280;17.806;2023-08-07T12:01:14;26.40;99.90
35668;DHT22;22158;59.280;17.806;2023-08-07T12:06:19;25.90;99.90
35668;DHT22;22158;59.280;17.806;2023-08-07T12:08:47;25.70;99.90
35668;DHT22;22158;59.280;17.806;2023-08-07T12:11:13;25.50;99.90
35668;DHT22;22158;59.280;17.806;2023-08-07T12:13:44;25.40;99.90
35668;DHT22;22158;59.280;17.806;2023-08-07T12:16:10;25.40;99.90
35668;DHT22;22158;59.280;17.806;2023-08-07T12:18:47;25.40;99.90
35668;DHT22;22158;59.280;17.806;2023-08-07T12:21:18;25.50;99.90
35668;DHT22;22158;59.280;17.806;2023-08-07T12:23:48;25.50;99.90
35668;DHT22;22158;59.280;17.806;2023-08-07T12:26:14;25.40;99.90
35668;DHT22;22158;59.280;17.806;2023-08-07T12:28:40;25.20;99.90
35668;DHT22;22158;59.280;17.806;2023-08-07T12:31:06;25.30;99.90
35668;DHT22;22158;59.280;17.806;2023-08-07T12:33:32;25.30;99.90
35668;DHT22;22158;59.280;17.806;2023-08-07T12:35:59;25.30;99.90
35668;DHT22;22158;59.280;17.806;2023-08-07T12:38:24;25.20;99.90
35668;DHT22;22158;59.280;17.806;2023-08-07T12:40:50;25.30;99.90
35668;DHT22;22158;59.280;17.806;2023-08-07T12:43:16;25.50;99.90
35668;DHT22;22158;59.280;17.806;2023-08-07T12:45:41;25.50;99.90
35668;DHT22;22158;59.280;17.806;2023-08-07T12:48:07;25.30;99.90
35668;DHT22;22158;59.280;17.806;2023-08-07T12:50:33;25.30;99.90
35668;DHT22;22158;59.280;17.806;2023-08-07T12:52:59;25.20;99.90
35668;DHT22;22158;59.280;17.806;2023-08-07T12:55:25;25.20;99.90
35668;DHT22;22158;59.280;17.806;2023-08-07T12:57:52;25.20;99.90
35668;DHT22;22158;59.280;17.806;2023-08-07T13:00:18;25.20;99.90
35668;DHT22;22158;59.280;17.806;2023-08-07T13:02:48;25.20;99.90
35668;DHT22;22158;59.280;17.806;2023-08-07T13:05:14;25.20;99.90
35668;DHT22;22158;59.280;17.806;2023-08-07T13:07:42;25.10;99.90
35668;DHT22;22158;59.280;17.806;2023-08-07T13:10:10;25.00;99.90
35668;DHT22;22158;59.280;17.806;2023-08-07T13:12:37;24.70;99.90
35668;DHT22;22158;59.280;17.806;2023-08-07T13:15:04;24.80;99.90
35668;DHT22;22158;59.280;17.806;2023-08-07T13:17:31;24.80;99.90
35668;DHT22;22158;59.280;17.806;2023-08-07T13:19:57;24.70;99.90
35668;DHT22;22158;59.280;17.806;2023-08-07T13:22:23;24.50;99.90
35668;DHT22;22158;59.280;17.806;2023-08-07T13:24:48;24.40;99.90
35668;DHT22;22158;59.280;17.806;2023-08-07T13:27:14;24.40;99.90
35668;DHT22;22158;59.280;17.806;2023-08-07T13:29:39;24.40;99.90
35668;DHT22;22158;59.280;17.806;2023-08-07T13:32:06;24.50;99.90
35668;DHT22;22158;59.280;17.806;2023-08-07T13:34:38;24.40;99.90
35668;DHT22;22158;59.280;17.806;2023-08-07T13:37:06;24.30;99.90
35668;DHT22;22158;59.280;17.806;2023-08-07T13:39:34;24.30;99.90
35668;DHT22;22158;59.280;17.806;2023-08-07T13:42:00;24.30;99.90
35668;DHT22;22158;59.280;17.806;2023-08-07T13:44:26;24.30;99.90
35668;DHT22;22158;59.280;17.806;2023-08-07T13:46:51;24.40;99.90
35668;DHT22;22158;59.280;17.806;2023-08-07T13:49:17;24.40;99.90
35668;DHT22;22158;59.280;17.806;2023-08-07T13:51:43;24.50;99.90
35668;DHT22;22158;59.280;17.806;2023-08-07T13:54:08;24.50;99.90
35668;DHT22;22158;59.280;17.806;2023-08-07T13:56:34;24.40;99.90
35668;DHT22;22158;59.280;17.806;2023-08-07T13:59:00;24.30;99.90
35668;DHT22;22158;59.280;17.806;2023-08-07T14:01:26;24.20;99.90
35668;DHT22;22158;59.280;17.806;2023-08-07T14:03:53;24.10;99.90
35668;DHT22;22158;59.280;17.806;2023-08-07T14:06:19;24.00;99.90
35668;DHT22;22158;59.280;17.806;2023-08-07T14:08:45;23.90;99.90
35668;DHT22;22158;59.280;17.806;2023-08-07T14:11:11;23.90;99.90
35668;DHT22;22158;59.280;17.806;2023-08-07T14:13:39;23.90;99.90
35668;DHT22;22158;59.280;17.806;2023-08-07T14:16:04;23.90;99.90
35668;DHT22;22158;59.280;17.806;2023-08-07T14:18:30;23.80;99.90
35668;DHT22;22158;59.280;17.806;2023-08-07T14:20:55;23.90;99.90
35668;DHT22;22158;59.280;17.806;2023-08-07T14:23:21;24.00;99.90
35668;DHT22;22158;59.280;17.806;2023-08-07T14:25:49;24.00;99.90
35668;DHT22;22158;59.280;17.806;2023-08-07T14:28:16;24.10;99.90
35668;DHT22;22158;59.280;17.806;2023-08-07T14:30:42;24.10;99.90
35668;DHT22;22158;59.280;17.806;2023-08-07T14:33:08;24.00;99.90
35668;DHT22;22158;59.280;17.806;2023-08-07T14:35:33;24.00;99.90
35668;DHT22;22158;59.280;17.806;2023-08-07T14:37:59;24.20;99.90
35668;DHT22;22158;59.280;17.806;2023-08-07T14:40:24;24.30;99.90
35668;DHT22;22158;59.280;17.806;2023-08-07T14:42:50;24.40;99.90
35668;DHT22;22158;59.280;17.806;2023-08-07T14:45:16;24.50;99.90
35668;DHT22;22158;59.280;17.806;2023-08-07T14:47:43;24.60;99.90
35668;DHT22;22158;59.280;17.806;2023-08-07T14:50:09;24.70;99.90
35668;DHT22;22158;59.280;17.806;2023-08-07T14:52:36;24.80;99.90
35668;DHT22;22158;59.280;17.806;2023-08-07T14:55:01;24.70;99.90
35668;DHT22;22158;59.280;17.806;2023-08-07T14:57:27;25.00;99.90
35668;DHT22;22158;59.280;17.806;2023-08-07T14:59:53;25.10;99.90
35668;DHT22;22158;59.280;17.806;2023-08-07T15:02:19;25.20;99.90
35668;DHT22;22158;59.280;17.806;2023-08-07T15:04:44;25.20;99.90
35668;DHT22;22158;59.280;17.806;2023-08-07T15:07:10;25.10;99.90
35668;DHT22;22158;59.280;17.806;2023-08-07T15:09:35;25.00;99.90
35668;DHT22;22158;59.280;17.806;2023-08-07T15:12:01;24.80;99.90
35668;DHT22;22158;59.280;17.806;2023-08-07T15:14:26;24.50;99.90
35668;DHT22;22158;59.280;17.806;2023-08-07T15:16:52;24.30;99.90
35668;DHT22;22158;59.280;17.806;2023-08-07T15:19:17;24.10;99.90
35668;DHT22;22158;59.280;17.806;2023-08-07T15:21:43;23.90;99.90
35668;DHT22;22158;59.280;17.806;2023-08-07T15:24:08;23.60;99.90
35668;DHT22;22158;59.280;17.806;2023-08-07T15:26:34;23.40;99.90